sensor_id;sensor_type;location;lat;lon;timestamp;pressure;altitude;pressure_sealevel;temperature;humidity
24031;BME280;12240;51.142;22.486;2023-05-14T00:01:01;100048.75;;;7.46;100.00
24031;BME280;12240;51.142;22.486;2023-05-14T00:03:29;100042.38;;;7.49;100.00
24031;BME280;12240;51.142;22.486;2023-05-14T00:05:57;100047.03;;;7.45;100.00
24031;BME280;12240;51.142;22.486;2023-05-14T00:08:25;100051.13;;;7.38;100.00
24031;BME280;12240;51.142;22.486;2023-05-14T00:10:54;100047.84;;;7.35;100.00
24031;BME280;12240;51.142;22.486;2023-05-14T00:13:22;100047.97;;;7.33;100.00
24031;BME280;12240;51.142;22.486;2023-05-14T00:15:49;100040.00;;;7.22;100.00
24031;BME280;12240;51.142;22.486;2023-05-14T00:18:17;100042.25;;;7.16;100.00
24031;BME280;12240;51.142;22.486;2023-05-14T00:20:45;100037.31;;;7.11;100.00
24031;BME280;12240;51.142;22.486;2023-05-14T00:23:13;100033.94;;;7.09;100.00
24031;BME280;12240;51.142;22.486;2023-05-14T00:25:41;100042.38;;;7.14;100.00
24031;BME280;12240;51.142;22.486;2023-05-14T00:28:09;100043.84;;;7.18;100.00
24031;BME280;12240;51.142;22.486;2023-05-14T00:30:38;100034.66;;;7.11;100.00
24031;BME280;12240;51.142;22.486;2023-05-14T00:33:06;100046.44;;;7.07;100.00
24031;BME280;12240;51.142;22.486;2023-05-14T00:35:35;100039.91;;;7.00;100.00
24031;BME280;12240;51.142;22.486;2023-05-14T00:38:03;100046.53;;;6.94;100.00
24031;BME280;12240;51.142;22.486;2023-05-14T00:40:31;100038.47;;;6.96;100.00
24031;BME280;12240;51.142;22.486;2023-05-14T00:43:00;100040.50;;;6.92;100.00
24031;BME280;12240;51.142;22.486;2023-05-14T00:45:28;100039.59;;;6.81;100.00
24031;BME280;12240;51.142;22.486;2023-05-14T00:47:56;100049.13;;;6.71;100.00
24031;BME280;12240;51.142;22.486;2023-05-14T00:50:24;100047.19;;;6.62;100.00
24031;BME280;12240;51.142;22.486;2023-05-14T00:52:53;100051.97;;;6.57;100.00
24031;BME280;12240;51.142;22.486;2023-05-14T00:55:23;100053.47;;;6.48;100.00
24031;BME280;12240;51.142;22.486;2023-05-14T00:57:52;100043.22;;;6.44;100.00
24031;BME280;12240;51.142;22.486;2023-05-14T01:00:21;100047.75;;;6.42;100.00
24031;BME280;12240;51.142;22.486;2023-05-14T01:02:50;100047.56;;;6.45;100.00
24031;BME280;12240;51.142;22.486;2023-05-14T01:05:18;100044.91;;;6.45;100.00
24031;BME280;12240;51.142;22.486;2023-05-14T01:08:02;100045.22;;;6.40;100.00
24031;BME280;12240;51.142;22.486;2023-05-14T01:10:57;100043.03;;;6.34;100.00
24031;BME280;12240;51.142;22.486;2023-05-14T01:13:46;100047.59;;;6.32;100.00
24031;BME280;12240;51.142;22.486;2023-05-14T01:16:18;100043.16;;;6.20;100.00
24031;BME280;12240;51.142;22.486;2023-05-14T01:18:49;100054.25;;;6.25;100.00
24031;BME280;12240;51.142;22.486;2023-05-14T01:21:41;100048.97;;;6.25;100.00
24031;BME280;12240;51.142;22.486;2023-05-14T01:24:10;100044.31;;;6.29;100.00
24031;BME280;12240;51.142;22.486;2023-05-14T01:26:38;100044.94;;;6.32;100.00
24031;BME280;12240;51.142;22.486;2023-05-14T01:31:45;100045.28;;;6.28;100.00
24031;BME280;12240;51.142;22.486;2023-05-14T01:34:15;100044.97;;;6.20;100.00
24031;BME280;12240;51.142;22.486;2023-05-14T01:36:46;100051.84;;;6.10;100.00
24031;BME280;12240;51.142;22.486;2023-05-14T01:39:16;100046.78;;;6.07;100.00
24031;BME280;12240;51.142;22.486;2023-05-14T01:41:45;100041.38;;;6.08;100.00
24031;BME280;12240;51.142;22.486;2023-05-14T01:44:14;100047.63;;;6.07;100.00
24031;BME280;12240;51.142;22.486;2023-05-14T01:46:42;100044.03;;;6.08;100.00
24031;BME280;12240;51.142;22.486;2023-05-14T01:49:10;100045.94;;;5.93;100.00
24031;BME280;12240;51.142;22.486;2023-05-14T01:51:38;100039.81;;;5.80;100.00
24031;BME280;12240;51.142;22.486;2023-05-14T01:54:06;100045.88;;;5.82;100.00
24031;BME280;12240;51.142;22.486;2023-05-14T01:56:34;100044.25;;;5.93;100.00
24031;BME280;12240;51.142;22.486;2023-05-14T01:59:02;100048.59;;;5.93;100.00
24031;BME280;12240;51.142;22.486;2023-05-14T02:01:30;100048.59;;;5.93;100.00
24031;BME280;12240;51.142;22.486;2023-05-14T02:03:58;100048.69;;;5.92;100.00
24031;BME280;12240;51.142;22.486;2023-05-14T02:06:27;100045.88;;;5.82;100.00
24031;BME280;12240;51.142;22.486;2023-05-14T02:08:56;100041.94;;;5.88;100.00
24031;BME280;12240;51.142;22.486;2023-05-14T02:11:24;100040.34;;;5.85;100.00
24031;BME280;12240;51.142;22.486;2023-05-14T02:13:52;100042.34;;;5.82;100.00
24031;BME280;12240;51.142;22.486;2023-05-14T02:16:21;100038.56;;;5.86;100.00
24031;BME280;12240;51.142;22.486;2023-05-14T02:18:51;100043.59;;;5.76;100.00
24031;BME280;12240;51.142;22.486;2023-05-14T02:21:19;100049.72;;;5.77;100.00
24031;BME280;12240;51.142;22.486;2023-05-14T02:23:47;100049.31;;;5.83;100.00
24031;BME280;12240;51.142;22.486;2023-05-14T02:26:17;100054.59;;;5.83;100.00
24031;BME280;12240;51.142;22.486;2023-05-14T02:28:45;100048.69;;;5.79;100.00
24031;BME280;12240;51.142;22.486;2023-05-14T02:31:13;100055.88;;;5.77;100.00
24031;BME280;12240;51.142;22.486;2023-05-14T02:33:41;100049.53;;;5.67;100.00
24031;BME280;12240;51.142;22.486;2023-05-14T02:36:09;100047.09;;;5.52;100.00
24031;BME280;12240;51.142;22.486;2023-05-14T02:38:37;100049.09;;;5.48;100.00
24031;BME280;12240;51.142;22.486;2023-05-14T02:41:05;100048.56;;;5.43;100.00
24031;BME280;12240;51.142;22.486;2023-05-14T02:43:33;100053.00;;;5.43;100.00
24031;BME280;12240;51.142;22.486;2023-05-14T02:46:01;100053.41;;;5.49;100.00
24031;BME280;12240;51.142;22.486;2023-05-14T02:48:30;100058.91;;;5.46;100.00
24031;BME280;12240;51.142;22.486;2023-05-14T02:50:58;100063.66;;;5.54;100.00
24031;BME280;12240;51.142;22.486;2023-05-14T02:53:27;100063.13;;;5.49;100.00
24031;BME280;12240;51.142;22.486;2023-05-14T02:55:54;100057.41;;;5.42;100.00
24031;BME280;12240;51.142;22.486;2023-05-14T02:58:23;100059.31;;;5.40;100.00
24031;BME280;12240;51.142;22.486;2023-05-14T03:00:55;100063.25;;;5.35;100.00
24031;BME280;12240;51.142;22.486;2023-05-14T03:03:23;100067.13;;;5.29;100.00
24031;BME280;12240;51.142;22.486;2023-05-14T03:05:52;100066.78;;;5.21;100.00
24031;BME280;12240;51.142;22.486;2023-05-14T03:08:20;100064.25;;;5.20;100.00
24031;BME280;12240;51.142;22.486;2023-05-14T03:10:48;100067.31;;;5.14;100.00
24031;BME280;12240;51.142;22.486;2023-05-14T03:13:16;100076.47;;;5.08;100.00
24031;BME280;12240;51.142;22.486;2023-05-14T03:15:47;100073.06;;;5.06;100.00
24031;BME280;12240;51.142;22.486;2023-05-14T03:18:16;100075.59;;;5.08;100.00
24031;BME280;12240;51.142;22.486;2023-05-14T03:20:45;100070.53;;;5.05;100.00
24031;BME280;12240;51.142;22.486;2023-05-14T03:23:14;100076.69;;;5.05;100.00
24031;BME280;12240;51.142;22.486;2023-05-14T03:25:42;100078.91;;;5.11;100.00
24031;BME280;12240;51.142;22.486;2023-05-14T03:28:10;100070.16;;;5.23;100.00
24031;BME280;12240;51.142;22.486;2023-05-14T03:30:38;100067.78;;;5.33;100.00
24031;BME280;12240;51.142;22.486;2023-05-14T03:33:06;100068.09;;;5.41;100.00
24031;BME280;12240;51.142;22.486;2023-05-14T03:35:34;100066.63;;;5.49;100.00
24031;BME280;12240;51.142;22.486;2023-05-14T03:38:02;100069.06;;;5.52;100.00
24031;BME280;12240;51.142;22.486;2023-05-14T03:40:30;100062.84;;;5.53;100.00
24031;BME280;12240;51.142;22.486;2023-05-14T03:42:58;100063.91;;;5.63;100.00
24031;BME280;12240;51.142;22.486;2023-05-14T03:45:27;100062.00;;;5.65;100.00
24031;BME280;12240;51.142;22.486;2023-05-14T03:47:58;100069.38;;;5.73;100.00
24031;BME280;12240;51.142;22.486;2023-05-14T03:50:26;100056.63;;;5.79;100.00
24031;BME280;12240;51.142;22.486;2023-05-14T03:52:55;100057.38;;;5.94;100.00
24031;BME280;12240;51.142;22.486;2023-05-14T03:55:23;100060.94;;;6.06;100.00
24031;BME280;12240;51.142;22.486;2023-05-14T03:57:51;100057.56;;;6.16;100.00
24031;BME280;12240;51.142;22.486;2023-05-14T04:00:19;100059.31;;;6.28;100.00
24031;BME280;12240;51.142;22.486;2023-05-14T04:02:48;100058.34;;;6.42;100.00
24031;BME280;12240;51.142;22.486;2023-05-14T04:05:17;100056.41;;;6.56;100.00
24031;BME280;12240;51.142;22.486;2023-05-14T04:07:45;100049.59;;;6.65;100.00
24031;BME280;12240;51.142;22.486;2023-05-14T04:10:13;100052.28;;;6.76;100.00
24031;BME280;12240;51.142;22.486;2023-05-14T04:12:42;100052.25;;;6.88;100.00
24031;BME280;12240;51.142;22.486;2023-05-14T04:15:11;100051.72;;;7.07;100.00
24031;BME280;12240;51.142;22.486;2023-05-14T04:17:39;100055.91;;;7.22;100.00
24031;BME280;12240;51.142;22.486;2023-05-14T04:20:08;100055.38;;;7.52;100.00
24031;BME280;12240;51.142;22.486;2023-05-14T04:22:36;100045.53;;;7.76;100.00
24031;BME280;12240;51.142;22.486;2023-05-14T04:25:05;100042.66;;;8.12;100.00
24031;BME280;12240;51.142;22.486;2023-05-14T04:27:33;100050.66;;;8.56;100.00
24031;BME280;12240;51.142;22.486;2023-05-14T04:30:02;100039.84;;;8.80;100.00
24031;BME280;12240;51.142;22.486;2023-05-14T04:32:30;100036.38;;;9.31;100.00
24031;BME280;12240;51.142;22.486;2023-05-14T04:34:59;100032.69;;;9.64;100.00
24031;BME280;12240;51.142;22.486;2023-05-14T04:37:28;100027.91;;;9.88;100.00
24031;BME280;12240;51.142;22.486;2023-05-14T04:39:56;100030.09;;;10.04;100.00
24031;BME280;12240;51.142;22.486;2023-05-14T04:42:25;100027.72;;;10.40;100.00
24031;BME280;12240;51.142;22.486;2023-05-14T04:44:53;100033.72;;;10.73;100.00
24031;BME280;12240;51.142;22.486;2023-05-14T04:47:21;100026.47;;;10.94;100.00
24031;BME280;12240;51.142;22.486;2023-05-14T04:49:49;100022.81;;;11.33;100.00
24031;BME280;12240;51.142;22.486;2023-05-14T04:52:18;100014.91;;;11.60;100.00
24031;BME280;12240;51.142;22.486;2023-05-14T04:54:46;100017.69;;;11.87;100.00
24031;BME280;12240;51.142;22.486;2023-05-14T04:57:14;100012.03;;;12.27;100.00
24031;BME280;12240;51.142;22.486;2023-05-14T04:59:42;100007.06;;;12.41;100.00
24031;BME280;12240;51.142;22.486;2023-05-14T05:02:10;100003.28;;;12.61;100.00
24031;BME280;12240;51.142;22.486;2023-05-14T05:04:39;99994.47;;;12.96;100.00
24031;BME280;12240;51.142;22.486;2023-05-14T05:07:07;99992.66;;;13.14;100.00
24031;BME280;12240;51.142;22.486;2023-05-14T05:09:35;99990.66;;;13.34;100.00
24031;BME280;12240;51.142;22.486;2023-05-14T05:12:03;99977.34;;;13.67;100.00
24031;BME280;12240;51.142;22.486;2023-05-14T05:14:31;99972.00;;;13.67;100.00
24031;BME280;12240;51.142;22.486;2023-05-14T05:16:59;99968.94;;;13.37;100.00
24031;BME280;12240;51.142;22.486;2023-05-14T05:19:27;99964.47;;;13.45;100.00
24031;BME280;12240;51.142;22.486;2023-05-14T05:22:10;99966.75;;;13.58;100.00
24031;BME280;12240;51.142;22.486;2023-05-14T05:24:38;99976.19;;;13.95;100.00
24031;BME280;12240;51.142;22.486;2023-05-14T05:27:06;99970.25;;;14.18;100.00
24031;BME280;12240;51.142;22.486;2023-05-14T05:29:36;99962.06;;;14.19;100.00
24031;BME280;12240;51.142;22.486;2023-05-14T05:32:05;99967.66;;;14.75;100.00
24031;BME280;12240;51.142;22.486;2023-05-14T05:34:34;99966.66;;;15.08;100.00
24031;BME280;12240;51.142;22.486;2023-05-14T05:37:03;99958.66;;;15.41;100.00
24031;BME280;12240;51.142;22.486;2023-05-14T05:39:33;99959.94;;;15.69;100.00
24031;BME280;12240;51.142;22.486;2023-05-14T05:42:04;99959.03;;;16.00;100.00
24031;BME280;12240;51.142;22.486;2023-05-14T05:44:32;99948.66;;;16.36;100.00
24031;BME280;12240;51.142;22.486;2023-05-14T05:47:01;99938.38;;;16.40;100.00
24031;BME280;12240;51.142;22.486;2023-05-14T05:49:29;99939.19;;;16.56;100.00
24031;BME280;12240;51.142;22.486;2023-05-14T05:51:58;99933.63;;;16.80;100.00
24031;BME280;12240;51.142;22.486;2023-05-14T05:54:26;99920.31;;;17.09;100.00
24031;BME280;12240;51.142;22.486;2023-05-14T05:56:54;99924.59;;;17.18;100.00
24031;BME280;12240;51.142;22.486;2023-05-14T05:59:23;99927.94;;;17.20;100.00
24031;BME280;12240;51.142;22.486;2023-05-14T06:01:51;99930.06;;;17.48;100.00
24031;BME280;12240;51.142;22.486;2023-05-14T06:04:19;99917.75;;;17.53;100.00
24031;BME280;12240;51.142;22.486;2023-05-14T06:06:47;99916.91;;;17.53;100.00
24031;BME280;12240;51.142;22.486;2023-05-14T06:09:16;99908.47;;;17.56;100.00
24031;BME280;12240;51.142;22.486;2023-05-14T06:11:44;99922.00;;;17.48;100.00
24031;BME280;12240;51.142;22.486;2023-05-14T06:14:12;99931.63;;;17.79;100.00
24031;BME280;12240;51.142;22.486;2023-05-14T06:16:40;99930.31;;;17.90;100.00
24031;BME280;12240;51.142;22.486;2023-05-14T06:19:08;99920.19;;;18.06;100.00
24031;BME280;12240;51.142;22.486;2023-05-14T06:21:38;99912.47;;;17.89;100.00
24031;BME280;12240;51.142;22.486;2023-05-14T06:24:06;99921.09;;;18.13;100.00
24031;BME280;12240;51.142;22.486;2023-05-14T06:26:34;99908.84;;;18.11;100.00
24031;BME280;12240;51.142;22.486;2023-05-14T06:29:02;99911.06;;;18.22;99.97
24031;BME280;12240;51.142;22.486;2023-05-14T06:31:30;99902.06;;;17.86;95.33
24031;BME280;12240;51.142;22.486;2023-05-14T06:33:59;99903.84;;;17.93;93.39
24031;BME280;12240;51.142;22.486;2023-05-14T06:36:27;99902.00;;;17.94;91.79
24031;BME280;12240;51.142;22.486;2023-05-14T06:38:56;99907.56;;;17.78;89.13
24031;BME280;12240;51.142;22.486;2023-05-14T06:41:26;99909.88;;;17.95;90.99
24031;BME280;12240;51.142;22.486;2023-05-14T06:43:54;99907.75;;;18.05;88.75
24031;BME280;12240;51.142;22.486;2023-05-14T06:46:22;99908.75;;;18.19;86.85
24031;BME280;12240;51.142;22.486;2023-05-14T06:48:50;99896.72;;;18.36;85.37
24031;BME280;12240;51.142;22.486;2023-05-14T06:51:19;99903.16;;;18.35;84.43
24031;BME280;12240;51.142;22.486;2023-05-14T06:53:47;99901.03;;;18.16;84.74
24031;BME280;12240;51.142;22.486;2023-05-14T06:56:15;99899.22;;;18.73;85.41
24031;BME280;12240;51.142;22.486;2023-05-14T06:58:44;99888.59;;;19.07;81.82
24031;BME280;12240;51.142;22.486;2023-05-14T07:01:13;99900.53;;;18.77;79.31
24031;BME280;12240;51.142;22.486;2023-05-14T07:03:41;99892.75;;;19.10;79.09
24031;BME280;12240;51.142;22.486;2023-05-14T07:06:09;99881.44;;;19.21;76.89
24031;BME280;12240;51.142;22.486;2023-05-14T07:08:41;99885.59;;;19.23;75.13
24031;BME280;12240;51.142;22.486;2023-05-14T07:11:13;99883.53;;;19.46;74.71
24031;BME280;12240;51.142;22.486;2023-05-14T07:13:42;99890.28;;;19.63;73.61
24031;BME280;12240;51.142;22.486;2023-05-14T07:16:10;99887.25;;;19.80;73.63
24031;BME280;12240;51.142;22.486;2023-05-14T07:18:39;99891.25;;;19.90;72.30
24031;BME280;12240;51.142;22.486;2023-05-14T07:21:07;99884.81;;;19.85;72.38
24031;BME280;12240;51.142;22.486;2023-05-14T07:23:36;99882.00;;;20.06;69.80
24031;BME280;12240;51.142;22.486;2023-05-14T07:26:05;99888.72;;;20.16;71.04
24031;BME280;12240;51.142;22.486;2023-05-14T07:28:34;99878.59;;;20.31;71.25
24031;BME280;12240;51.142;22.486;2023-05-14T07:31:02;99879.75;;;19.75;69.25
24031;BME280;12240;51.142;22.486;2023-05-14T07:33:35;99882.59;;;20.01;70.33
24031;BME280;12240;51.142;22.486;2023-05-14T07:36:04;99879.28;;;20.46;70.10
24031;BME280;12240;51.142;22.486;2023-05-14T07:38:32;99885.13;;;20.50;70.15
24031;BME280;12240;51.142;22.486;2023-05-14T07:41:01;99868.06;;;20.56;69.07
24031;BME280;12240;51.142;22.486;2023-05-14T07:43:30;99867.78;;;20.31;68.33
24031;BME280;12240;51.142;22.486;2023-05-14T07:45:59;99865.34;;;20.43;67.33
24031;BME280;12240;51.142;22.486;2023-05-14T07:48:27;99870.66;;;20.17;67.35
24031;BME280;12240;51.142;22.486;2023-05-14T07:50:55;99855.16;;;20.58;67.68
24031;BME280;12240;51.142;22.486;2023-05-14T07:53:23;99847.69;;;20.53;66.66
24031;BME280;12240;51.142;22.486;2023-05-14T07:55:51;99848.69;;;20.39;65.25
24031;BME280;12240;51.142;22.486;2023-05-14T07:58:20;99840.50;;;20.20;66.25
24031;BME280;12240;51.142;22.486;2023-05-14T08:00:48;99848.47;;;20.34;66.11
24031;BME280;12240;51.142;22.486;2023-05-14T08:03:16;99834.31;;;20.39;66.49
24031;BME280;12240;51.142;22.486;2023-05-14T08:05:44;99834.44;;;20.18;65.69
24031;BME280;12240;51.142;22.486;2023-05-14T08:08:12;99834.97;;;20.47;66.92
24031;BME280;12240;51.142;22.486;2023-05-14T08:10:40;99832.91;;;20.56;65.64
24031;BME280;12240;51.142;22.486;2023-05-14T08:13:08;99825.22;;;20.72;65.54
24031;BME280;12240;51.142;22.486;2023-05-14T08:15:36;99820.28;;;21.15;64.02
24031;BME280;12240;51.142;22.486;2023-05-14T08:18:05;99811.69;;;20.85;64.14
24031;BME280;12240;51.142;22.486;2023-05-14T08:20:33;99810.00;;;20.84;63.88
24031;BME280;12240;51.142;22.486;2023-05-14T08:23:01;99800.44;;;20.56;63.33
24031;BME280;12240;51.142;22.486;2023-05-14T08:25:29;99795.44;;;20.66;63.32
24031;BME280;12240;51.142;22.486;2023-05-14T08:27:57;99808.78;;;20.74;63.85
24031;BME280;12240;51.142;22.486;2023-05-14T08:30:27;99812.78;;;21.04;65.04
24031;BME280;12240;51.142;22.486;2023-05-14T08:32:57;99804.19;;;20.68;64.19
24031;BME280;12240;51.142;22.486;2023-05-14T08:35:26;99812.50;;;20.73;64.95
24031;BME280;12240;51.142;22.486;2023-05-14T08:37:54;99802.09;;;20.57;63.19
24031;BME280;12240;51.142;22.486;2023-05-14T08:40:24;99800.88;;;20.92;63.35
24031;BME280;12240;51.142;22.486;2023-05-14T08:42:55;99804.63;;;20.91;62.30
24031;BME280;12240;51.142;22.486;2023-05-14T08:45:29;99815.06;;;21.01;61.43
24031;BME280;12240;51.142;22.486;2023-05-14T08:48:03;99815.84;;;20.81;62.05
24031;BME280;12240;51.142;22.486;2023-05-14T08:50:36;99811.72;;;21.18;62.58
24031;BME280;12240;51.142;22.486;2023-05-14T08:53:04;99805.47;;;21.31;61.09
24031;BME280;12240;51.142;22.486;2023-05-14T08:55:33;99811.00;;;21.68;61.90
24031;BME280;12240;51.142;22.486;2023-05-14T08:58:02;99811.66;;;21.51;61.14
24031;BME280;12240;51.142;22.486;2023-05-14T09:00:31;99817.13;;;21.18;63.39
24031;BME280;12240;51.142;22.486;2023-05-14T09:03:00;99819.22;;;21.36;63.00
24031;BME280;12240;51.142;22.486;2023-05-14T09:05:28;99807.13;;;21.32;60.81
24031;BME280;12240;51.142;22.486;2023-05-14T09:07:56;99827.69;;;21.72;63.77
24031;BME280;12240;51.142;22.486;2023-05-14T09:10:25;99815.75;;;21.92;62.02
24031;BME280;12240;51.142;22.486;2023-05-14T09:12:53;99821.19;;;21.79;63.74
24031;BME280;12240;51.142;22.486;2023-05-14T09:15:22;99816.84;;;21.78;64.71
24031;BME280;12240;51.142;22.486;2023-05-14T09:17:55;99816.84;;;21.72;64.17
24031;BME280;12240;51.142;22.486;2023-05-14T09:20:24;99819.19;;;21.42;63.42
24031;BME280;12240;51.142;22.486;2023-05-14T09:22:53;99828.75;;;21.45;65.64
24031;BME280;12240;51.142;22.486;2023-05-14T09:25:26;99820.03;;;21.43;63.31
24031;BME280;12240;51.142;22.486;2023-05-14T09:27:55;99828.31;;;21.80;66.38
24031;BME280;12240;51.142;22.486;2023-05-14T09:30:25;99813.63;;;21.94;63.12
24031;BME280;12240;51.142;22.486;2023-05-14T09:32:54;99806.00;;;21.78;62.22
24031;BME280;12240;51.142;22.486;2023-05-14T09:35:23;99809.16;;;21.56;63.23
24031;BME280;12240;51.142;22.486;2023-05-14T09:37:53;99806.84;;;21.59;63.92
24031;BME280;12240;51.142;22.486;2023-05-14T09:40:23;99792.72;;;21.38;61.37
24031;BME280;12240;51.142;22.486;2023-05-14T09:42:52;99802.69;;;21.63;62.79
24031;BME280;12240;51.142;22.486;2023-05-14T09:45:20;99790.81;;;21.58;61.66
24031;BME280;12240;51.142;22.486;2023-05-14T09:47:48;99802.41;;;22.35;63.39
24031;BME280;12240;51.142;22.486;2023-05-14T09:50:18;99802.69;;;21.63;60.83
24031;BME280;12240;51.142;22.486;2023-05-14T09:52:46;99802.31;;;22.11;62.72
24031;BME280;12240;51.142;22.486;2023-05-14T09:55:15;99790.38;;;21.61;60.16
24031;BME280;12240;51.142;22.486;2023-05-14T09:57:43;99792.53;;;21.33;59.90
24031;BME280;12240;51.142;22.486;2023-05-14T10:00:12;99798.78;;;21.27;60.60
24031;BME280;12240;51.142;22.486;2023-05-14T10:02:42;99802.13;;;21.35;60.27
24031;BME280;12240;51.142;22.486;2023-05-14T10:05:13;99807.91;;;21.52;60.55
24031;BME280;12240;51.142;22.486;2023-05-14T10:07:47;99808.97;;;21.38;60.85
24031;BME280;12240;51.142;22.486;2023-05-14T10:10:19;99788.97;;;21.45;59.40
24031;BME280;12240;51.142;22.486;2023-05-14T10:13:01;99784.22;;;21.34;58.97
24031;BME280;12240;51.142;22.486;2023-05-14T10:18:24;99777.41;;;22.27;59.90
24031;BME280;12240;51.142;22.486;2023-05-14T10:21:06;99758.84;;;22.24;58.66
24031;BME280;12240;51.142;22.486;2023-05-14T10:23:35;99760.31;;;21.82;58.82
24031;BME280;12240;51.142;22.486;2023-05-14T10:26:06;99753.50;;;21.60;58.69
24031;BME280;12240;51.142;22.486;2023-05-14T10:28:35;99755.78;;;21.63;59.65
24031;BME280;12240;51.142;22.486;2023-05-14T10:31:03;99768.91;;;22.17;61.04
24031;BME280;12240;51.142;22.486;2023-05-14T10:33:49;99755.72;;;22.82;61.13
24031;BME280;12240;51.142;22.486;2023-05-14T10:36:19;99747.16;;;23.46;60.76
24031;BME280;12240;51.142;22.486;2023-05-14T10:38:54;99726.63;;;23.68;57.43
24031;BME280;12240;51.142;22.486;2023-05-14T10:41:24;99733.75;;;23.33;58.44
24031;BME280;12240;51.142;22.486;2023-05-14T10:43:52;99726.44;;;23.27;56.94
24031;BME280;12240;51.142;22.486;2023-05-14T10:46:21;99730.59;;;23.54;59.88
24031;BME280;12240;51.142;22.486;2023-05-14T10:48:50;99696.41;;;23.22;54.71
24031;BME280;12240;51.142;22.486;2023-05-14T10:51:19;99705.44;;;23.41;57.30
24031;BME280;12240;51.142;22.486;2023-05-14T10:53:50;99693.88;;;23.45;56.64
24031;BME280;12240;51.142;22.486;2023-05-14T10:56:19;99684.06;;;23.62;54.76
24031;BME280;12240;51.142;22.486;2023-05-14T10:58:49;99673.09;;;23.98;53.43
24031;BME280;12240;51.142;22.486;2023-05-14T11:01:17;99680.91;;;24.36;52.51
24031;BME280;12240;51.142;22.486;2023-05-14T11:03:46;99696.59;;;24.11;55.20
24031;BME280;12240;51.142;22.486;2023-05-14T11:06:20;99680.22;;;23.99;52.96
24031;BME280;12240;51.142;22.486;2023-05-14T11:08:50;99695.84;;;23.86;53.96
24031;BME280;12240;51.142;22.486;2023-05-14T11:11:18;99681.19;;;23.39;52.48
24031;BME280;12240;51.142;22.486;2023-05-14T11:13:46;99684.00;;;23.51;54.40
24031;BME280;12240;51.142;22.486;2023-05-14T11:16:15;99678.03;;;22.81;51.93
24031;BME280;12240;51.142;22.486;2023-05-14T11:19:01;99685.00;;;23.13;53.61
24031;BME280;12240;51.142;22.486;2023-05-14T11:21:30;99685.34;;;23.42;54.63
24031;BME280;12240;51.142;22.486;2023-05-14T11:24:01;99678.88;;;23.00;55.48
24031;BME280;12240;51.142;22.486;2023-05-14T11:26:32;99676.78;;;23.02;53.76
24031;BME280;12240;51.142;22.486;2023-05-14T11:29:01;99664.56;;;23.65;54.50
24031;BME280;12240;51.142;22.486;2023-05-14T11:31:29;99671.97;;;23.22;53.65
24031;BME280;12240;51.142;22.486;2023-05-14T11:33:57;99657.88;;;23.79;53.55
24031;BME280;12240;51.142;22.486;2023-05-14T11:36:25;99656.13;;;23.85;54.65
24031;BME280;12240;51.142;22.486;2023-05-14T11:38:54;99645.13;;;24.09;52.83
24031;BME280;12240;51.142;22.486;2023-05-14T11:41:22;99643.69;;;24.07;53.11
24031;BME280;12240;51.142;22.486;2023-05-14T11:43:50;99649.00;;;24.66;54.06
24031;BME280;12240;51.142;22.486;2023-05-14T11:46:18;99641.94;;;24.12;53.86
24031;BME280;12240;51.142;22.486;2023-05-14T11:48:47;99638.69;;;24.34;54.32
24031;BME280;12240;51.142;22.486;2023-05-14T11:51:15;99644.53;;;23.78;53.68
24031;BME280;12240;51.142;22.486;2023-05-14T11:53:44;99631.78;;;23.60;53.83
24031;BME280;12240;51.142;22.486;2023-05-14T11:56:13;99614.59;;;23.48;53.84
24031;BME280;12240;51.142;22.486;2023-05-14T11:58:47;99639.06;;;23.48;55.20
24031;BME280;12240;51.142;22.486;2023-05-14T12:01:16;99630.78;;;23.43;54.23
24031;BME280;12240;51.142;22.486;2023-05-14T12:03:44;99630.03;;;23.95;55.44
24031;BME280;12240;51.142;22.486;2023-05-14T12:06:12;99611.88;;;23.78;54.78
24031;BME280;12240;51.142;22.486;2023-05-14T12:08:40;99621.19;;;24.00;54.06
24031;BME280;12240;51.142;22.486;2023-05-14T12:11:08;99616.66;;;24.35;54.92
24031;BME280;12240;51.142;22.486;2023-05-14T12:13:36;99614.53;;;24.95;54.86
24031;BME280;12240;51.142;22.486;2023-05-14T12:16:06;99603.50;;;23.79;53.69
24031;BME280;12240;51.142;22.486;2023-05-14T12:18:34;99604.81;;;24.30;53.41
24031;BME280;12240;51.142;22.486;2023-05-14T12:21:04;99599.66;;;23.69;53.01
24031;BME280;12240;51.142;22.486;2023-05-14T12:23:37;99610.94;;;24.13;54.54
24031;BME280;12240;51.142;22.486;2023-05-14T12:26:07;99601.38;;;24.11;53.18
24031;BME280;12240;51.142;22.486;2023-05-14T12:28:38;99604.22;;;24.16;53.48
24031;BME280;12240;51.142;22.486;2023-05-14T12:31:10;99587.53;;;24.12;54.25
24031;BME280;12240;51.142;22.486;2023-05-14T12:33:39;99608.91;;;23.68;55.26
24031;BME280;12240;51.142;22.486;2023-05-14T12:36:07;99605.50;;;23.84;55.71
24031;BME280;12240;51.142;22.486;2023-05-14T12:38:38;99574.06;;;24.17;52.82
24031;BME280;12240;51.142;22.486;2023-05-14T12:41:08;99589.19;;;24.13;54.23
24031;BME280;12240;51.142;22.486;2023-05-14T12:43:35;99583.69;;;23.61;53.95
24031;BME280;12240;51.142;22.486;2023-05-14T12:46:04;99580.16;;;23.72;54.21
24031;BME280;12240;51.142;22.486;2023-05-14T12:48:32;99578.41;;;24.65;54.61
24031;BME280;12240;51.142;22.486;2023-05-14T12:51:00;99572.97;;;24.88;54.47
24031;BME280;12240;51.142;22.486;2023-05-14T12:53:28;99576.53;;;24.19;54.74
24031;BME280;12240;51.142;22.486;2023-05-14T12:55:56;99570.88;;;23.79;54.57
24031;BME280;12240;51.142;22.486;2023-05-14T12:58:25;99566.41;;;23.96;54.77
24031;BME280;12240;51.142;22.486;2023-05-14T13:00:53;99573.34;;;24.34;54.59